Time;durP1;ratioP1;P1;durP2;ratioP2;P2;SDS_P1;SDS_P2;PMS_P1;PMS_P2;Temp;Humidity;BMP_temperature;BMP_pressure;BME280_temperature;BME280_humidity;BME280_pressure;Samples;Min_cycle;Max_cycle;Signal;HPM_P1;HPM_P2
2023/05/09 00:00:09;;;;;;;5.40;2.63;;;;;;;11.76;84.60;102325.47;5048156;28;21015;-79
2023/05/09 00:02:37;;;;;;;3.63;2.67;;;;;;;11.72;85.39;102326.16;5031473;28;20205;-79
2023/05/09 00:05:04;;;;;;;3.17;2.63;;;;;;;11.68;86.07;102327.72;5051162;28;20201;-76
2023/05/09 00:07:30;;;;;;;6.47;2.80;;;;;;;11.68;86.02;102330.31;5034966;28;20569;-78
2023/05/09 00:09:56;;;;;;;4.83;2.87;;;;;;;11.62;88.75;102331.75;5037782;28;20262;-78
2023/05/09 00:12:22;;;;;;;5.23;2.90;;;;;;;11.55;89.26;102335.72;5044314;28;20734;-79
2023/05/09 00:14:50;;;;;;;4.40;2.50;;;;;;;11.57;90.04;102334.09;5055357;28;20201;-79
2023/05/09 00:17:17;;;;;;;3.87;2.90;;;;;;;11.51;89.52;102321.03;5039259;28;20192;-80
2023/05/09 00:19:43;;;;;;;3.97;2.60;;;;;;;11.50;90.63;102321.84;5028754;28;20805;-78
2023/05/09 00:22:09;;;;;;;4.47;2.93;;;;;;;11.50;89.62;102314.16;5059320;28;20233;-78
2023/05/09 00:24:34;;;;;;;5.60;2.70;;;;;;;11.47;90.68;102310.59;5030290;28;20243;-78
2023/05/09 00:27:00;;;;;;;3.23;2.80;;;;;;;11.47;90.99;102311.47;5038461;28;20198;-78
2023/05/09 00:29:26;;;;;;;3.97;2.60;;;;;;;11.51;90.08;102313.34;5059731;28;20219;-79
2023/05/09 00:31:51;;;;;;;5.73;2.50;;;;;;;11.41;92.22;102321.50;5044015;28;20276;-78
2023/05/09 00:34:17;;;;;;;3.90;2.80;;;;;;;11.37;91.96;102314.47;5040929;28;20239;-78
2023/05/09 00:36:42;;;;;;;4.00;2.93;;;;;;;11.39;91.08;102312.84;5047052;28;20205;-78
2023/05/09 00:39:08;;;;;;;3.20;2.70;;;;;;;11.33;92.97;102310.03;5061636;28;20225;-78
2023/05/09 00:41:34;;;;;;;3.33;2.40;;;;;;;11.29;92.48;102304.75;5060829;28;20227;-81
2023/05/09 00:43:59;;;;;;;7.93;3.27;;;;;;;11.26;94.56;102315.75;5060500;28;20190;-78
2023/05/09 00:46:25;;;;;;;4.67;2.93;;;;;;;11.25;93.67;102306.28;5041212;28;20201;-79
2023/05/09 00:48:51;;;;;;;4.53;3.23;;;;;;;11.20;95.61;102312.06;5034138;28;20184;-78
2023/05/09 00:51:17;;;;;;;5.53;3.20;;;;;;;11.17;95.20;102305.13;5041959;28;20683;-79
2023/05/09 00:53:44;;;;;;;4.23;2.83;;;;;;;11.13;96.55;102300.69;5055672;28;20745;-78
2023/05/09 00:56:11;;;;;;;5.67;2.97;;;;;;;11.10;96.61;102298.00;5045736;28;20193;-81
2023/05/09 00:58:37;;;;;;;6.40;3.63;;;;;;;11.10;98.10;102297.13;5059050;28;20196;-80
2023/05/09 01:01:03;;;;;;;6.73;3.30;;;;;;;11.05;100.00;102301.16;5040697;28;20259;-80
2023/05/09 01:03:30;;;;;;;6.70;3.63;;;;;;;10.92;100.00;102286.97;5024742;28;20189;-80
2023/05/09 01:06:03;;;;;;;4.03;3.00;;;;;;;10.95;100.00;102286.22;5059325;28;20217;-81
2023/05/09 01:08:40;;;;;;;9.20;3.13;;;;;;;10.91;100.00;102276.66;5010729;28;20678;-79
2023/05/09 01:11:13;;;;;;;4.17;3.30;;;;;;;10.82;100.00;102283.97;5042402;28;20201;-79
2023/05/09 01:14:00;;;;;;;6.93;3.40;;;;;;;10.87;100.00;102274.81;5015910;28;20216;-79
2023/05/09 01:17:09;;;;;;;3.87;3.30;;;;;;;10.76;100.00;102266.69;5051800;28;20668;-81
2023/05/09 01:19:59;;;;;;;6.40;3.33;;;;;;;10.71;100.00;102274.97;4999711;28;20245;-79
2023/05/09 01:22:30;;;;;;;5.73;3.00;;;;;;;10.70;100.00;102265.56;5533986;22;20217;-78
2023/05/09 01:25:19;;;;;;;7.47;3.20;;;;;;;10.69;100.00;102258.69;6038029;23;20190;-77
2023/05/09 01:28:06;;;;;;;8.90;3.80;;;;;;;10.68;100.00;102250.13;6084644;23;20188;-78
2023/05/09 01:30:34;;;;;;;5.63;3.40;;;;;;;10.69;100.00;102254.41;6036634;23;20201;-77
2023/05/09 01:33:06;;;;;;;7.57;4.07;;;;;;;10.65;100.00;102257.66;6058974;23;20208;-78
2023/05/09 01:35:34;;;;;;;8.80;3.63;;;;;;;10.59;100.00;102246.28;6079237;23;20549;-78
2023/05/09 01:38:03;;;;;;;3.93;3.43;;;;;;;10.54;100.00;102251.22;6031154;23;20181;-79
2023/05/09 01:40:32;;;;;;;7.63;3.30;;;;;;;10.54;100.00;102248.66;6060100;23;20721;-77
2023/05/09 01:43:02;;;;;;;6.20;3.50;;;;;;;10.52;100.00;102252.88;6086174;23;20624;-80
2023/05/09 01:45:30;;;;;;;4.97;3.70;;;;;;;10.50;100.00;102240.81;6060923;23;20185;-78
2023/05/09 01:47:57;;;;;;;4.53;3.20;;;;;;;10.51;100.00;102235.72;6037705;23;20187;-79
2023/05/09 01:50:24;;;;;;;4.40;3.50;;;;;;;10.45;100.00;102240.59;6081461;23;20633;-79
2023/05/09 01:52:54;;;;;;;4.03;2.97;;;;;;;10.48;100.00;102232.16;6080774;23;20579;-79
2023/05/09 01:55:24;;;;;;;4.90;3.70;;;;;;;10.46;100.00;102236.38;6056760;23;20188;-78
2023/05/09 01:57:52;;;;;;;5.43;3.57;;;;;;;10.42;100.00;102231.91;6035888;23;20189;-78
2023/05/09 02:00:18;;;;;;;10.00;3.90;;;;;;;10.43;100.00;102234.53;6056396;23;20600;-77
2023/05/09 02:02:45;;;;;;;6.17;3.50;;;;;;;10.44;100.00;102228.59;6050634;23;20213;-78
2023/05/09 02:05:12;;;;;;;5.90;4.07;;;;;;;10.37;100.00;102235.97;6082291;23;20185;-78
2023/05/09 02:07:40;;;;;;;4.93;3.80;;;;;;;10.34;100.00;102254.63;6062419;23;20570;-78
2023/05/09 02:10:10;;;;;;;5.17;3.73;;;;;;;10.37;100.00;102247.06;6085044;23;20701;-77
2023/05/09 02:12:36;;;;;;;5.77;3.53;;;;;;;10.32;100.00;102246.00;6056470;23;20700;-79
2023/05/09 02:15:02;;;;;;;7.00;3.40;;;;;;;10.30;100.00;102249.31;6038345;23;20173;-78
2023/05/09 02:17:29;;;;;;;6.53;4.00;;;;;;;10.31;100.00;102245.94;6045296;23;20180;-77
2023/05/09 02:19:55;;;;;;;6.37;4.30;;;;;;;10.21;100.00;102244.69;6059994;23;20189;-77
2023/05/09 02:22:21;;;;;;;6.83;3.80;;;;;;;10.18;100.00;102253.91;6032138;23;20213;-77
2023/05/09 02:24:46;;;;;;;5.30;3.57;;;;;;;10.19;100.00;102243.72;6053570;23;20415;-77
2023/05/09 02:27:14;;;;;;;4.73;4.23;;;;;;;10.16;100.00;102242.72;6028901;23;20184;-77
2023/05/09 02:29:48;;;;;;;5.83;3.60;;;;;;;10.13;100.00;102233.22;6081440;23;20179;-77
2023/05/09 02:32:15;;;;;;;5.10;3.50;;;;;;;10.10;100.00;102237.34;6076544;23;20855;-78
2023/05/09 02:34:42;;;;;;;7.23;4.30;;;;;;;10.02;100.00;102238.66;6053038;23;20729;-78
2023/05/09 02:37:09;;;;;;;9.17;4.50;;;;;;;9.95;100.00;102239.22;6032550;23;20173;-78
2023/05/09 02:39:35;;;;;;;5.40;3.50;;;;;;;9.98;100.00;102234.19;6030199;23;20208;-78
2023/05/09 02:42:09;;;;;;;4.30;3.90;;;;;;;9.97;100.00;102233.34;6061274;23;20209;-78
2023/05/09 02:44:35;;;;;;;4.20;3.77;;;;;;;9.90;100.00;102235.56;6055748;23;20185;-78
2023/05/09 02:47:05;;;;;;;4.77;3.80;;;;;;;9.86;100.00;102229.41;6063606;23;20180;-77
2023/05/09 02:49:30;;;;;;;6.47;4.50;;;;;;;9.81;100.00;102225.78;6054086;23;20185;-78
2023/05/09 02:51:56;;;;;;;5.63;3.87;;;;;;;9.73;100.00;102227.13;6038152;23;20212;-77
2023/05/09 02:54:21;;;;;;;5.47;4.03;;;;;;;9.75;100.00;102216.97;6059852;23;20203;-76
2023/05/09 02:56:47;;;;;;;6.63;3.73;;;;;;;9.74;100.00;102216.09;6052955;23;20178;-77
2023/05/09 02:59:12;;;;;;;8.30;4.20;;;;;;;9.67;100.00;102226.84;6059736;23;20172;-77
2023/05/09 03:01:38;;;;;;;7.33;4.70;;;;;;;9.61;100.00;102225.69;6042029;23;20728;-77
2023/05/09 03:04:04;;;;;;;5.73;4.43;;;;;;;9.55;100.00;102228.88;6059600;23;20185;-76
2023/05/09 03:06:30;;;;;;;6.53;4.30;;;;;;;9.55;100.00;102228.88;6059718;23;20211;-78
2023/05/09 03:08:55;;;;;;;5.20;4.17;;;;;;;9.49;100.00;102231.13;6084649;23;20177;-77
2023/05/09 03:11:22;;;;;;;7.50;4.20;;;;;;;9.50;100.00;102226.91;6036656;23;20173;-77
2023/05/09 03:13:48;;;;;;;5.40;4.03;;;;;;;9.46;100.00;102232.69;6053246;23;20548;-76
2023/05/09 03:16:17;;;;;;;5.70;3.87;;;;;;;9.51;100.00;102218.41;6042801;23;20616;-77
2023/05/09 03:18:43;;;;;;;8.73;4.67;;;;;;;9.41;100.00;102223.94;6056309;23;20195;-78
2023/05/09 03:21:09;;;;;;;4.43;4.03;;;;;;;9.35;100.00;102223.66;6042380;23;20208;-77
2023/05/09 03:23:36;;;;;;;6.17;4.27;;;;;;;9.27;100.00;102222.41;6061360;23;20197;-79
2023/05/09 03:26:01;;;;;;;5.37;4.40;;;;;;;9.26;100.00;102215.56;6037593;23;20212;-77
2023/05/09 03:28:27;;;;;;;7.40;4.50;;;;;;;9.30;100.00;102202.13;6058017;23;20689;-77
2023/05/09 03:30:56;;;;;;;5.27;4.43;;;;;;;9.27;100.00;102202.81;6057645;23;20734;-76
2023/05/09 03:33:24;;;;;;;8.23;4.77;;;;;;;9.25;100.00;102201.00;6037358;23;20201;-80
2023/05/09 03:35:51;;;;;;;8.10;4.57;;;;;;;9.26;100.00;102206.19;6033845;23;20576;-77
2023/05/09 03:38:16;;;;;;;6.63;4.33;;;;;;;9.17;100.00;102210.88;6051295;23;20180;-77
2023/05/09 03:40:42;;;;;;;7.30;4.47;;;;;;;9.23;100.00;102197.50;6060584;23;20275;-77
2023/05/09 03:43:09;;;;;;;7.63;4.53;;;;;;;9.10;100.00;102205.41;6061955;23;20197;-78
2023/05/09 03:45:37;;;;;;;5.70;4.57;;;;;;;9.17;100.00;102192.13;6053706;23;20191;-77
2023/05/09 03:48:07;;;;;;;6.70;4.47;;;;;;;9.18;100.00;102191.31;6032938;23;20189;-77
2023/05/09 03:50:34;;;;;;;5.93;4.73;;;;;;;9.20;100.00;102190.59;6051679;23;20184;-77
2023/05/09 03:53:00;;;;;;;7.47;4.80;;;;;;;9.21;100.00;102189.78;6036218;23;20197;-77
2023/05/09 03:55:26;;;;;;;6.37;4.53;;;;;;;9.19;100.00;102193.94;6059997;23;20189;-78
2023/05/09 03:57:53;;;;;;;5.53;4.60;;;;;;;9.09;100.00;102196.00;6037331;23;20271;-77
2023/05/09 04:00:19;;;;;;;8.30;4.90;;;;;;;9.12;100.00;102185.94;6079845;23;20267;-77
2023/05/09 04:02:52;;;;;;;7.27;5.03;;;;;;;9.14;100.00;102184.31;6056376;23;20205;-78
2023/05/09 04:05:27;;;;;;;6.87;4.73;;;;;;;9.14;100.00;102180.09;6058400;23;20181;-79
2023/05/09 04:07:53;;;;;;;5.43;4.60;;;;;;;9.17;100.00;102180.22;6054878;23;20526;-76
2023/05/09 04:10:19;;;;;;;6.10;4.80;;;;;;;9.16;100.00;102175.03;6038034;23;20395;-77
2023/05/09 04:12:44;;;;;;;5.80;5.00;;;;;;;9.17;100.00;102180.22;6087164;23;20200;-77
2023/05/09 04:15:10;;;;;;;9.37;5.00;;;;;;;9.17;100.00;102172.53;6054848;23;20189;-77
2023/05/09 04:17:36;;;;;;;5.23;4.50;;;;;;;9.23;100.00;102171.97;6043338;23;20246;-79
2023/05/09 04:20:02;;;;;;;6.03;4.80;;;;;;;9.22;100.00;102177.88;6042799;23;20208;-79
2023/05/09 04:22:27;;;;;;;8.17;5.00;;;;;;;9.15;100.00;102178.38;6061836;23;20212;-79
2023/05/09 04:24:53;;;;;;;7.50;4.70;;;;;;;9.17;100.00;102169.13;6087995;23;20212;-78
2023/05/09 04:27:18;;;;;;;8.50;5.50;;;;;;;9.21;100.00;102179.53;6052377;23;20187;-74
2023/05/09 04:29:44;;;;;;;6.37;5.20;;;;;;;9.25;100.00;102189.13;6041047;23;20212;-76
2023/05/09 04:32:10;;;;;;;7.90;5.10;;;;;;;9.30;100.00;102181.69;6079346;23;20185;-76
2023/05/09 04:34:36;;;;;;;8.53;5.03;;;;;;;9.31;100.00;102176.59;6052105;23;20548;-75
2023/05/09 04:37:09;;;;;;;5.90;4.90;;;;;;;9.31;100.00;102179.16;6051869;23;20184;-76
2023/05/09 04:39:35;;;;;;;7.23;5.27;;;;;;;9.29;100.00;102188.44;6038199;23;20262;-76
2023/05/09 04:42:10;;;;;;;5.43;4.63;;;;;;;9.34;100.00;102184.44;6053836;23;20215;-74
2023/05/09 04:44:35;;;;;;;6.73;5.20;;;;;;;9.36;100.00;102179.38;6059284;23;20185;-76
2023/05/09 04:47:01;;;;;;;13.53;6.03;;;;;;;9.39;100.00;102176.94;6054161;23;20545;-78
2023/05/09 04:49:27;;;;;;;8.60;5.27;;;;;;;9.43;100.00;102173.72;6042059;23;20189;-76
2023/05/09 04:51:52;;;;;;;8.40;5.30;;;;;;;9.49;100.00;102180.00;6053620;23;20201;-76
2023/05/09 04:54:18;;;;;;;8.70;5.60;;;;;;;9.55;100.00;102164.94;6032790;23;20192;-76
2023/05/09 04:56:44;;;;;;;6.03;5.17;;;;;;;9.58;100.00;102174.44;6056278;23;20212;-76
2023/05/09 04:59:09;;;;;;;8.13;5.80;;;;;;;9.58;100.00;102174.44;6061389;23;20559;-76
2023/05/09 05:01:35;;;;;;;8.03;6.17;;;;;;;9.70;100.00;102172.41;6040508;23;20202;-76
2023/05/09 05:04:00;;;;;;;7.17;4.90;;;;;;;9.72;100.00;102173.38;6055951;23;20747;-79
2023/05/09 05:06:28;;;;;;;8.67;5.33;;;;;;;9.77;100.00;102159.94;6037865;23;20185;-76
2023/05/09 05:08:54;;;;;;;5.40;4.90;;;;;;;9.84;100.00;102168.75;6059386;23;20551;-76
2023/05/09 05:11:20;;;;;;;14.60;5.63;;;;;;;9.91;100.00;102148.63;6030614;23;20182;-76
2023/05/09 05:13:46;;;;;;;8.20;4.80;;;;;;;9.96;100.00;102136.03;6055444;23;20209;-77
2023/05/09 05:16:11;;;;;;;7.90;5.50;;;;;;;9.99;100.00;102134.47;6046251;23;20184;-76
2023/05/09 05:18:37;;;;;;;6.10;5.17;;;;;;;10.07;100.00;102137.41;6057464;23;20177;-76
2023/05/09 05:21:04;;;;;;;8.13;5.30;;;;;;;10.18;100.00;102121.69;6040474;23;20670;-76
2023/05/09 05:23:29;;;;;;;6.90;5.23;;;;;;;10.33;100.00;102119.72;6055171;23;20213;-77
2023/05/09 05:25:55;;;;;;;7.33;4.57;;;;;;;10.43;100.00;102096.28;6042194;23;20196;-77
2023/05/09 05:28:21;;;;;;;8.47;5.40;;;;;;;10.46;100.00;102075.03;6061960;23;20189;-76
2023/05/09 05:30:47;;;;;;;8.47;5.47;;;;;;;10.57;100.00;102072.09;6036903;23;20560;-76
2023/05/09 05:33:12;;;;;;;12.23;5.27;;;;;;;10.67;100.00;102056.25;6055436;23;20251;-76
2023/05/09 05:35:37;;;;;;;8.47;5.10;;;;;;;10.75;100.00;102043.72;6055424;23;20192;-77
2023/05/09 05:38:03;;;;;;;6.00;5.17;;;;;;;10.80;100.00;102029.41;6063065;23;20208;-76
2023/05/09 05:40:28;;;;;;;5.00;4.37;;;;;;;10.96;100.00;102008.66;6062663;23;20224;-76
2023/05/09 05:42:55;;;;;;;7.87;5.67;;;;;;;11.00;100.00;102006.25;6041230;23;20208;-77
2023/05/09 05:45:21;;;;;;;6.83;5.80;;;;;;;11.17;100.00;101987.22;6039282;23;20321;-77
2023/05/09 05:47:50;;;;;;;6.10;5.10;;;;;;;11.32;100.00;101977.50;6035092;23;20208;-77
2023/05/09 05:50:16;;;;;;;8.30;4.97;;;;;;;11.37;100.00;101963.13;6034308;23;20235;-77
2023/05/09 05:52:42;;;;;;;7.13;5.30;;;;;;;11.45;100.00;101945.44;6058377;23;20193;-76
2023/05/09 05:55:11;;;;;;;5.90;4.93;;;;;;;11.60;100.00;101933.16;6053532;23;20187;-76
2023/05/09 05:57:37;;;;;;;6.20;5.10;;;;;;;11.53;100.00;101936.31;6039171;23;20268;-76
2023/05/09 06:00:09;;;;;;;6.53;5.63;;;;;;;11.64;100.00;101935.00;6043385;23;20235;-78
2023/05/09 06:02:44;;;;;;;9.10;5.80;;;;;;;11.90;100.00;101924.72;6079517;23;20215;-77
2023/05/09 06:05:20;;;;;;;6.57;5.30;;;;;;;11.89;100.00;101914.44;6034739;23;20682;-76
2023/05/09 06:07:45;;;;;;;6.70;5.73;;;;;;;12.14;100.00;101911.78;6060797;23;20182;-77
2023/05/09 06:10:15;;;;;;;6.87;5.23;;;;;;;12.22;100.00;101892.34;6064677;23;20314;-77
2023/05/09 06:12:43;;;;;;;6.47;5.63;;;;;;;12.32;100.00;101868.66;6044709;23;20232;-76
2023/05/09 06:15:09;;;;;;;9.60;5.33;;;;;;;12.47;100.00;101861.38;6045711;23;20577;-77
2023/05/09 06:17:38;;;;;;;7.90;5.30;;;;;;;12.63;100.00;101853.28;6034993;23;20247;-76
2023/05/09 06:20:04;;;;;;;10.00;5.50;;;;;;;12.81;100.00;101844.34;6058110;23;20228;-77
2023/05/09 06:22:29;;;;;;;5.73;4.80;;;;;;;12.88;100.00;101811.13;6054277;23;20208;-76
2023/05/09 06:24:54;;;;;;;9.53;5.57;;;;;;;12.74;100.00;101779.91;6037824;23;20756;-76
2023/05/09 06:27:20;;;;;;;6.27;5.07;;;;;;;13.04;100.00;101766.97;6060593;23;20185;-76
2023/05/09 06:29:46;;;;;;;7.43;5.10;;;;;;;13.18;100.00;101760.47;6080913;23;20656;-76
2023/05/09 06:32:11;;;;;;;6.70;5.40;;;;;;;13.07;100.00;101752.50;6063245;23;20208;-77
2023/05/09 06:34:37;;;;;;;6.70;5.23;;;;;;;13.18;100.00;101732.19;6052542;23;20200;-78
2023/05/09 06:37:02;;;;;;;5.87;4.83;;;;;;;13.41;100.00;101749.88;6065329;23;20258;-78
2023/05/09 06:39:28;;;;;;;6.90;5.17;;;;;;;13.56;100.00;101723.59;6062137;23;20184;-79
2023/05/09 06:41:53;;;;;;;6.23;5.10;;;;;;;13.55;100.00;101685.84;6062470;23;20209;-78
2023/05/09 06:44:28;;;;;;;7.50;5.00;;;;;;;13.85;100.00;101707.06;6062370;23;20188;-78
2023/05/09 06:46:54;;;;;;;6.47;5.23;;;;;;;13.94;99.19;101686.63;6033812;23;20186;-78
2023/05/09 06:49:19;;;;;;;6.07;5.27;;;;;;;14.09;95.79;101658.59;6064218;23;20195;-78
2023/05/09 06:51:45;;;;;;;7.43;4.83;;;;;;;14.18;94.07;101640.75;6041334;23;20205;-78
2023/05/09 06:54:10;;;;;;;7.30;4.70;;;;;;;14.44;96.32;101644.63;6035419;23;20192;-78
2023/05/09 06:56:36;;;;;;;8.03;5.03;;;;;;;14.65;92.19;101622.63;6032875;23;20186;-78
2023/05/09 06:59:01;;;;;;;5.80;4.60;;;;;;;14.84;96.90;101639.28;6042111;23;20193;-78
2023/05/09 07:01:27;;;;;;;5.63;4.30;;;;;;;15.00;89.57;101589.63;6085214;23;20201;-78
2023/05/09 07:03:55;;;;;;;6.63;4.73;;;;;;;14.90;83.21;101537.06;6056754;23;20448;-77
2023/05/09 07:06:20;;;;;;;5.67;4.50;;;;;;;15.11;84.36;101544.22;6079967;23;20622;-78
2023/05/09 07:08:46;;;;;;;5.77;4.70;;;;;;;15.26;78.59;101522.03;6083838;23;20185;-78
2023/05/09 07:11:11;;;;;;;6.97;4.80;;;;;;;15.25;77.25;101514.28;6064474;23;20173;-78
2023/05/09 07:13:36;;;;;;;5.63;4.80;;;;;;;15.04;78.58;101525.22;6064737;23;20687;-76
2023/05/09 07:16:02;;;;;;;8.17;4.70;;;;;;;15.28;77.75;101527.22;6085564;23;20181;-78
2023/05/09 07:18:28;;;;;;;10.50;4.63;;;;;;;15.35;77.03;101522.19;6053478;23;20192;-77
2023/05/09 07:20:54;;;;;;;6.40;4.97;;;;;;;15.59;77.51;101521.56;6089468;23;20679;-79
2023/05/09 07:23:19;;;;;;;9.77;4.30;;;;;;;15.59;74.05;101501.78;5367635;23;20299;-75
2023/05/09 07:25:45;;;;;;;5.77;4.27;;;;;;;15.63;71.50;101482.88;5044281;28;20214;-75
2023/05/09 07:28:11;;;;;;;6.50;4.27;;;;;;;16.00;71.21;101505.59;5039871;28;20220;-76
2023/05/09 07:30:37;;;;;;;5.87;4.20;;;;;;;16.00;71.40;101495.25;5038495;28;20202;-77
2023/05/09 07:33:03;;;;;;;7.43;4.90;;;;;;;16.11;69.38;101488.44;5011022;28;20194;-78
2023/05/09 07:35:28;;;;;;;5.33;4.63;;;;;;;16.10;66.83;101478.97;5038857;28;20312;-77
2023/05/09 07:37:53;;;;;;;7.37;4.30;;;;;;;16.38;67.20;101495.50;5033246;28;20277;-76
2023/05/09 07:40:19;;;;;;;5.40;4.10;;;;;;;16.62;66.06;101475.00;5043110;28;20682;-77
2023/05/09 07:42:48;;;;;;;5.80;4.40;;;;;;;16.51;65.94;101482.72;5013551;28;20205;-77
2023/05/09 07:45:14;;;;;;;6.27;3.90;;;;;;;16.85;62.95;101460.47;5034044;28;20189;-77
2023/05/09 07:47:40;;;;;;;4.70;3.87;;;;;;;16.96;62.22;101456.19;5039879;28;20617;-76
2023/05/09 07:50:06;;;;;;;7.53;4.40;;;;;;;17.28;62.68;101464.91;5039049;28;20288;-77
2023/05/09 07:52:31;;;;;;;6.63;4.37;;;;;;;17.39;60.15;101445.06;5041064;28;20200;-78
2023/05/09 07:54:57;;;;;;;7.00;3.97;;;;;;;17.34;58.96;101450.25;5033651;28;20281;-77
2023/05/09 07:57:22;;;;;;;4.97;3.77;;;;;;;17.37;60.36;101465.75;5039265;28;20283;-77
2023/05/09 07:59:48;;;;;;;5.10;4.07;;;;;;;17.26;58.12;101439.00;5026764;28;20217;-76
2023/05/09 08:02:13;;;;;;;4.53;3.77;;;;;;;17.38;58.74;101462.34;5039404;28;20198;-77
2023/05/09 08:04:40;;;;;;;6.23;3.90;;;;;;;17.99;57.51;101473.59;5037470;28;20197;-77
2023/05/09 08:07:06;;;;;;;6.07;4.13;;;;;;;18.18;56.18;101519.38;5036590;28;20283;-77
2023/05/09 08:09:32;;;;;;;5.70;4.13;;;;;;;17.88;55.25;101522.88;5041721;28;20197;-77
2023/05/09 08:11:57;;;;;;;4.93;4.23;;;;;;;18.13;55.25;101528.91;5038003;28;20211;-77
2023/05/09 08:14:23;;;;;;;7.70;3.90;;;;;;;18.42;55.06;101534.97;5007330;28;20182;-77
2023/05/09 08:16:48;;;;;;;5.80;3.83;;;;;;;18.14;53.61;101521.13;5035502;28;20202;-77
2023/05/09 08:19:14;;;;;;;5.47;3.90;;;;;;;18.49;53.43;101529.78;5022350;28;20190;-77
2023/05/09 08:21:39;;;;;;;5.57;3.57;;;;;;;18.63;54.31;101534.94;5043630;28;20573;-77
2023/05/09 08:24:06;;;;;;;10.03;4.17;;;;;;;18.89;54.71;101533.13;5048339;28;20270;-77
2023/05/09 08:26:33;;;;;;;5.53;3.80;;;;;;;18.78;53.04;101520.19;5001392;28;20296;-77
2023/05/09 08:29:00;;;;;;;4.93;3.80;;;;;;;18.87;53.37;101532.25;5038344;28;20193;-76
2023/05/09 08:31:25;;;;;;;5.13;3.60;;;;;;;18.89;51.62;101496.78;5037830;28;20197;-77
2023/05/09 08:33:51;;;;;;;6.10;3.63;;;;;;;19.24;52.59;101518.28;5022554;28;20198;-77
2023/05/09 08:36:17;;;;;;;4.50;3.70;;;;;;;19.77;52.37;101522.28;5017235;28;20209;-76
2023/05/09 08:38:42;;;;;;;9.43;3.70;;;;;;;19.41;50.08;101499.16;5020626;28;20289;-77
2023/05/09 08:41:08;;;;;;;3.73;3.43;;;;;;;19.19;50.35;101507.03;5045823;28;20264;-77
2023/05/09 08:43:34;;;;;;;10.00;3.90;;;;;;;19.77;50.65;101524.03;5027177;28;20269;-76
2023/05/09 08:46:05;;;;;;;9.97;3.80;;;;;;;19.41;48.84;101495.69;5046729;28;20209;-76
2023/05/09 08:48:33;;;;;;;6.83;3.90;;;;;;;19.92;49.87;101511.78;5043628;28;20198;-77
2023/05/09 08:50:59;;;;;;;9.00;4.53;;;;;;;20.41;48.74;101488.81;5021775;28;20187;-77
2023/05/09 08:53:25;;;;;;;6.00;3.90;;;;;;;19.77;47.56;101492.84;5048844;28;20205;-76
2023/05/09 08:55:51;;;;;;;6.60;3.50;;;;;;;20.09;48.41;101509.06;5036848;28;20651;-76
2023/05/09 08:58:18;;;;;;;5.93;3.83;;;;;;;20.26;49.63;101521.06;5032394;28;20897;-77
2023/05/09 09:00:45;;;;;;;3.90;3.40;;;;;;;20.40;47.85;101485.34;5039688;28;20800;-76
2023/05/09 09:03:11;;;;;;;6.87;3.80;;;;;;;20.46;46.60;101484.44;5026865;28;20562;-75
2023/05/09 09:05:41;;;;;;;18.00;4.80;;;;;;;20.43;45.69;101476.66;5039089;28;20252;-75
2023/05/09 09:08:07;;;;;;;7.37;3.50;;;;;;;20.54;45.06;101464.41;5047024;28;20201;-75
2023/05/09 09:10:33;;;;;;;6.40;3.40;;;;;;;20.78;45.47;101480.56;5040939;28;20197;-76
2023/05/09 09:13:00;;;;;;;4.03;3.07;;;;;;;20.98;47.59;101507.28;5033766;28;20249;-76
2023/05/09 09:15:35;;;;;;;3.83;3.20;;;;;;;21.16;45.33;101482.72;5018597;28;20203;-75
2023/05/09 09:18:08;;;;;;;3.60;2.90;;;;;;;21.26;44.31;101472.16;5019220;28;20248;-77
2023/05/09 09:20:42;;;;;;;5.37;3.43;;;;;;;21.42;43.50;101478.03;5027481;28;20243;-76
2023/05/09 09:23:11;;;;;;;4.07;3.67;;;;;;;21.44;42.57;101469.31;5047437;28;20727;-76
2023/05/09 09:25:36;;;;;;;7.10;3.40;;;;;;;21.33;42.32;101484.22;5027974;28;20256;-75
2023/05/09 09:28:03;;;;;;;3.30;3.00;;;;;;;20.92;43.05;101485.66;5011031;28;20947;-75
2023/05/09 09:30:29;;;;;;;3.60;2.97;;;;;;;21.27;43.88;101491.25;5039907;28;20786;-76
2023/05/09 09:32:54;;;;;;;4.60;3.07;;;;;;;21.56;43.08;101458.66;5022989;28;20194;-72
2023/05/09 09:35:20;;;;;;;6.10;3.00;;;;;;;21.97;43.05;101469.31;5028599;28;20212;-77
2023/05/09 09:37:46;;;;;;;3.40;2.90;;;;;;;21.93;41.99;101452.00;5052819;28;20199;-78
2023/05/09 09:40:13;;;;;;;3.83;2.90;;;;;;;22.05;41.26;101445.69;5031473;28;20217;-77
2023/05/09 09:42:43;;;;;;;4.23;2.70;;;;;;;21.47;41.74;101473.59;5017380;28;20190;-77
2023/05/09 09:45:15;;;;;;;5.20;2.73;;;;;;;22.06;42.67;101487.44;5047996;28;20201;-76
2023/05/09 09:47:45;;;;;;;4.03;2.87;;;;;;;22.19;40.61;101454.16;5042225;28;20638;-77
2023/05/09 09:50:13;;;;;;;3.83;2.80;;;;;;;22.01;40.59;101446.63;5046987;28;20200;-77
2023/05/09 09:52:47;;;;;;;5.43;2.80;;;;;;;21.82;41.62;101455.66;5036752;28;20182;-76
2023/05/09 09:55:13;;;;;;;4.67;2.80;;;;;;;22.11;42.13;101485.59;5041146;28;20659;-76
2023/05/09 09:57:40;;;;;;;5.53;2.93;;;;;;;22.11;41.32;101459.50;5049050;28;20214;-78
2023/05/09 10:00:06;;;;;;;7.23;2.93;;;;;;;22.26;40.49;101440.09;5036734;28;20287;-77
2023/05/09 10:02:32;;;;;;;8.30;3.47;;;;;;;21.99;41.40;101438.00;5045664;28;20632;-78
2023/05/09 10:05:08;;;;;;;5.03;3.47;;;;;;;22.07;40.19;101441.34;5035183;28;20225;-78
2023/05/09 10:07:34;;;;;;;3.67;3.00;;;;;;;22.23;40.77;101445.38;5046260;28;20241;-77
2023/05/09 10:10:04;;;;;;;4.13;2.60;;;;;;;22.85;40.31;101428.50;5029512;28;20190;-78
2023/05/09 10:12:33;;;;;;;4.80;3.10;;;;;;;22.61;40.88;101435.06;5017755;28;20193;-77
2023/05/09 10:15:00;;;;;;;5.77;2.93;;;;;;;22.38;40.58;101438.13;5045150;28;20201;-76
2023/05/09 10:17:29;;;;;;;3.57;3.00;;;;;;;22.75;39.99;101427.81;5015250;28;20661;-76
2023/05/09 10:19:55;;;;;;;3.87;3.10;;;;;;;22.66;40.83;101432.38;5041029;28;20216;-77
2023/05/09 10:22:23;;;;;;;4.53;2.93;;;;;;;22.67;39.46;101407.97;5044338;28;20193;-78
2023/05/09 10:25:03;;;;;;;5.07;3.27;;;;;;;23.27;39.49;101412.75;5047893;28;20213;-78
2023/05/09 10:27:31;;;;;;;6.17;2.90;;;;;;;23.50;39.16;101412.19;5024947;28;20216;-72
2023/05/09 10:30:07;;;;;;;7.17;3.17;;;;;;;23.35;39.36;101423.91;5046036;28;20201;-77
2023/05/09 10:32:52;;;;;;;5.17;2.60;;;;;;;22.50;39.96;101418.78;5022292;28;20194;-76
2023/05/09 10:35:21;;;;;;;8.37;2.90;;;;;;;22.84;39.44;101413.72;5044045;28;20252;-76
2023/05/09 10:37:47;;;;;;;5.67;2.93;;;;;;;23.11;39.24;101413.13;5045334;28;20189;-75
2023/05/09 10:40:14;;;;;;;3.97;2.80;;;;;;;22.85;38.36;101376.25;5044381;28;20206;-76
2023/05/09 10:42:43;;;;;;;4.83;2.53;;;;;;;22.81;37.42;101375.47;5045237;28;20198;-75
2023/05/09 10:45:11;;;;;;;3.83;2.80;;;;;;;23.09;38.12;101375.69;5027077;28;20197;-75
2023/05/09 10:47:41;;;;;;;5.70;2.93;;;;;;;23.08;38.39;101384.44;5041730;28;20198;-74
2023/05/09 10:50:08;;;;;;;4.30;2.93;;;;;;;22.84;37.56;101370.16;5021068;28;20208;-74
2023/05/09 10:52:54;;;;;;;7.47;2.97;;;;;;;22.60;37.92;101383.75;5043107;28;20243;-74
2023/05/09 10:55:19;;;;;;;3.47;2.67;;;;;;;23.07;37.84;101370.47;5036565;28;20296;-75
2023/05/09 10:57:52;;;;;;;3.13;2.60;;;;;;;23.20;38.88;101389.41;5032140;28;20979;-74
2023/05/09 11:00:23;;;;;;;3.30;2.73;;;;;;;23.52;38.05;101371.19;5022476;28;20229;-74
2023/05/09 11:03:07;;;;;;;6.43;2.70;;;;;;;23.45;37.42;101344.34;5030869;28;20222;-75
2023/05/09 11:05:38;;;;;;;3.97;2.43;;;;;;;23.14;37.70;101343.31;5041356;28;20216;-74
2023/05/09 11:08:25;;;;;;;6.03;2.60;;;;;;;23.14;37.72;101339.84;5040736;28;20233;-74
2023/05/09 11:10:56;;;;;;;4.47;2.73;;;;;;;23.81;38.46;101369.53;5034903;28;20225;-74
2023/05/09 11:13:29;;;;;;;6.17;2.83;;;;;;;23.23;37.84;101326.59;5045972;28;20196;-74
2023/05/09 11:15:58;;;;;;;4.70;2.90;;;;;;;23.83;38.47;101359.88;5038301;28;20238;-75
2023/05/09 11:18:23;;;;;;;3.63;3.20;;;;;;;24.05;38.49;101344.50;5013273;28;20620;-74
2023/05/09 11:20:50;;;;;;;4.63;2.83;;;;;;;23.74;37.45;101305.19;5025397;28;20297;-75
2023/05/09 11:23:18;;;;;;;4.67;2.70;;;;;;;24.01;38.25;101333.25;5041478;28;20190;-74